createdAt,value
2017-10-22T00:01:55.801Z,10.50
2017-10-22T00:04:23.329Z,10.50
2017-10-22T00:06:50.872Z,10.60
2017-10-22T00:09:18.392Z,10.60
2017-10-22T00:11:45.937Z,10.60
2017-10-22T00:14:14.223Z,10.60
2017-10-22T00:16:42.527Z,10.60
2017-10-22T00:19:10.047Z,10.60
2017-10-22T00:21:38.355Z,10.60
2017-10-22T00:24:05.883Z,10.50
2017-10-22T00:26:33.435Z,10.60
2017-10-22T00:29:00.960Z,10.50
2017-10-22T00:31:28.523Z,10.50
2017-10-22T00:33:56.052Z,10.50
2017-10-22T00:36:24.348Z,10.50
2017-10-22T00:38:51.883Z,10.40
2017-10-22T00:41:20.168Z,10.50
2017-10-22T00:43:48.475Z,10.50
2017-10-22T00:46:15.998Z,10.40
2017-10-22T00:48:44.311Z,10.40
2017-10-22T00:51:11.834Z,10.40
2017-10-22T00:53:39.372Z,10.40
2017-10-22T00:56:06.895Z,10.40
2017-10-22T00:58:34.426Z,10.40
2017-10-22T01:01:01.954Z,10.40
2017-10-22T01:03:29.496Z,10.40
2017-10-22T01:05:57.019Z,10.40
2017-10-22T01:08:25.333Z,10.40
2017-10-22T01:10:52.872Z,10.40
2017-10-22T01:13:21.204Z,10.50
2017-10-22T01:15:48.727Z,10.50
2017-10-22T01:18:16.242Z,10.50
2017-10-22T01:20:43.786Z,10.50
2017-10-22T01:23:11.511Z,10.50
2017-10-22T01:25:39.810Z,10.40
2017-10-22T01:28:07.332Z,10.40
2017-10-22T01:30:34.875Z,10.40
2017-10-22T01:33:02.401Z,10.40
2017-10-22T01:35:29.941Z,10.40
2017-10-22T01:37:58.227Z,10.40
2017-10-22T01:40:26.534Z,10.40
2017-10-22T01:42:54.047Z,10.40
2017-10-22T01:45:22.350Z,10.40
2017-10-22T01:47:50.641Z,10.40
2017-10-22T01:50:18.195Z,10.40
2017-10-22T01:52:45.716Z,10.30
2017-10-22T01:55:13.238Z,10.30
2017-10-22T01:57:40.780Z,10.30
2017-10-22T02:00:08.294Z,10.30
2017-10-22T02:02:35.859Z,10.30
2017-10-22T02:05:03.381Z,10.30
2017-10-22T02:07:30.922Z,10.30
2017-10-22T02:09:58.438Z,10.30
2017-10-22T02:12:25.976Z,10.30
2017-10-22T02:14:53.496Z,10.30
2017-10-22T02:17:21.808Z,10.30
2017-10-22T02:19:49.329Z,10.30
2017-10-22T02:22:16.871Z,10.30
2017-10-22T02:24:44.394Z,10.30
2017-10-22T02:27:11.915Z,10.30
2017-10-22T02:29:39.449Z,10.30
2017-10-22T02:32:06.977Z,10.30
2017-10-22T02:34:34.520Z,10.30
2017-10-22T02:37:02.807Z,10.30
2017-10-22T02:39:31.115Z,10.30
2017-10-22T02:41:58.633Z,10.30
2017-10-22T02:44:26.171Z,10.30
2017-10-22T02:46:53.682Z,10.30
2017-10-22T02:49:21.220Z,10.20
2017-10-22T02:51:48.747Z,10.20
2017-10-22T02:54:16.290Z,10.20
2017-10-22T02:56:43.815Z,10.20
2017-10-22T02:59:12.123Z,10.10
2017-10-22T03:01:39.639Z,10.10
2017-10-22T03:04:07.186Z,10.10
2017-10-22T03:06:34.728Z,10.00
2017-10-22T03:09:02.247Z,10.00
2017-10-22T03:11:30.555Z,9.90
2017-10-22T03:13:58.075Z,9.90
2017-10-22T03:16:25.616Z,9.90
2017-10-22T03:18:53.139Z,9.90
2017-10-22T03:23:45.515Z,9.90
2017-10-22T03:26:13.052Z,9.90
2017-10-22T03:28:40.575Z,9.90
2017-10-22T03:31:08.095Z,9.90
2017-10-22T03:33:35.628Z,9.90
2017-10-22T03:36:03.918Z,9.90
2017-10-22T03:38:32.219Z,9.80
2017-10-22T03:40:59.740Z,9.80
2017-10-22T03:43:27.271Z,9.80
2017-10-22T03:45:54.797Z,9.80
2017-10-22T03:48:22.354Z,9.80
2017-10-22T03:50:49.871Z,9.80
2017-10-22T03:53:17.380Z,9.80
2017-10-22T03:55:44.924Z,9.90
2017-10-22T03:58:13.211Z,9.80
2017-10-22T04:00:41.513Z,9.80
2017-10-22T04:03:09.051Z,9.80
2017-10-22T04:05:37.534Z,9.70
2017-10-22T04:08:05.053Z,9.70
2017-10-22T04:10:32.595Z,9.70
2017-10-22T04:13:00.107Z,9.70
2017-10-22T04:15:27.652Z,9.70
2017-10-22T04:17:55.167Z,9.70
2017-10-22T04:20:22.700Z,9.60
2017-10-22T04:22:50.218Z,9.60
2017-10-22T04:25:17.754Z,9.60
2017-10-22T04:27:45.268Z,9.70
2017-10-22T04:30:12.789Z,9.70
2017-10-22T04:32:40.318Z,9.70
2017-10-22T04:35:08.603Z,9.60
2017-10-22T04:37:36.905Z,9.60
2017-10-22T04:40:04.422Z,9.60
2017-10-22T04:42:31.956Z,9.60
2017-10-22T04:44:59.481Z,9.50
2017-10-22T04:47:27.780Z,9.50
2017-10-22T04:49:55.300Z,9.40
2017-10-22T04:52:22.838Z,9.50
2017-10-22T04:54:50.364Z,9.50
2017-10-22T04:57:17.909Z,9.40
2017-10-22T04:59:45.439Z,9.50
2017-10-22T05:02:12.959Z,9.50
2017-10-22T05:04:40.491Z,9.50
2017-10-22T05:07:08.771Z,9.50
2017-10-22T05:09:37.081Z,9.50
2017-10-22T05:12:04.599Z,9.50
2017-10-22T05:14:32.130Z,9.50
2017-10-22T05:16:59.653Z,9.60
2017-10-22T05:19:27.195Z,9.50
2017-10-22T05:21:55.483Z,9.50
2017-10-22T05:24:23.779Z,9.50
2017-10-22T05:26:51.299Z,9.50
2017-10-22T05:29:18.839Z,9.50
2017-10-22T05:31:46.359Z,9.50
2017-10-22T05:34:13.915Z,9.50
2017-10-22T05:36:41.436Z,9.40
2017-10-22T05:39:08.952Z,9.30
2017-10-22T05:41:36.486Z,9.20
2017-10-22T05:44:04.796Z,9.00
2017-10-22T05:46:32.340Z,9.10
2017-10-22T05:48:59.861Z,9.00
2017-10-22T05:51:27.403Z,8.90
2017-10-22T05:53:54.934Z,8.90
2017-10-22T05:56:22.474Z,8.90
2017-10-22T05:58:51.000Z,8.90
2017-10-22T06:01:18.583Z,8.80
2017-10-22T06:03:46.183Z,8.90
2017-10-22T06:06:14.482Z,8.80
2017-10-22T06:08:42.004Z,8.80
2017-10-22T06:11:09.550Z,8.70
2017-10-22T06:13:37.199Z,8.70
2017-10-22T06:16:04.766Z,8.70
2017-10-22T06:18:32.283Z,8.70
2017-10-22T06:21:00.563Z,8.70
2017-10-22T06:23:28.876Z,8.70
2017-10-22T06:25:56.391Z,8.70
2017-10-22T06:28:23.931Z,8.70
2017-10-22T06:30:51.451Z,8.90
2017-10-22T06:33:19.365Z,9.20
2017-10-22T06:35:47.689Z,9.30
2017-10-22T06:38:15.227Z,9.40
2017-10-22T06:40:43.518Z,9.40
2017-10-22T06:43:11.828Z,9.30
2017-10-22T06:45:39.353Z,9.30
2017-10-22T06:48:06.901Z,9.20
2017-10-22T06:50:34.435Z,9.30
2017-10-22T06:53:01.974Z,9.40
2017-10-22T06:55:29.499Z,9.40
2017-10-22T06:57:58.261Z,10.00
2017-10-22T07:00:25.855Z,10.00
2017-10-22T07:02:54.155Z,10.00
2017-10-22T07:05:21.708Z,10.00
2017-10-22T07:07:49.990Z,9.80
2017-10-22T07:10:17.547Z,9.80
2017-10-22T07:12:45.080Z,9.70
2017-10-22T07:15:12.623Z,9.60
2017-10-22T07:17:40.135Z,9.60
2017-10-22T07:20:07.671Z,9.70
2017-10-22T07:22:35.960Z,9.80
2017-10-22T07:25:04.269Z,9.70
2017-10-22T07:27:31.795Z,9.80
2017-10-22T07:30:00.107Z,9.60
2017-10-22T07:32:27.620Z,9.60
2017-10-22T07:34:55.135Z,9.60
2017-10-22T07:37:22.668Z,9.70
2017-10-22T07:39:50.946Z,9.60
2017-10-22T07:42:19.248Z,9.70
2017-10-22T07:44:46.766Z,9.60
2017-10-22T07:47:14.316Z,9.70
2017-10-22T07:49:41.836Z,9.80
2017-10-22T07:52:09.384Z,9.80
2017-10-22T07:54:37.682Z,9.80
2017-10-22T07:57:05.224Z,9.80
2017-10-22T07:59:32.743Z,9.90
2017-10-22T08:02:00.279Z,9.90
2017-10-22T08:04:27.805Z,9.90
2017-10-22T08:06:56.144Z,10.00
2017-10-22T08:09:23.667Z,10.00
2017-10-22T08:11:51.958Z,10.70
2017-10-22T08:14:19.503Z,10.70
2017-10-22T08:16:47.795Z,11.30
2017-10-22T08:19:16.103Z,11.20
2017-10-22T08:21:43.617Z,11.20
2017-10-22T08:24:11.156Z,11.10
2017-10-22T08:26:39.438Z,10.80
2017-10-22T08:29:06.975Z,10.70
2017-10-22T08:31:34.498Z,10.70
2017-10-22T08:34:02.040Z,10.50
2017-10-22T08:36:29.559Z,10.50
2017-10-22T08:38:57.110Z,10.50
2017-10-22T08:41:25.399Z,10.40
2017-10-22T08:43:52.938Z,10.40
2017-10-22T08:46:20.453Z,10.30
2017-10-22T08:48:48.028Z,10.30
2017-10-22T08:51:15.546Z,10.30
2017-10-22T08:53:43.832Z,10.40
2017-10-22T08:56:12.139Z,10.30
2017-10-22T08:58:39.664Z,10.30
2017-10-22T09:01:07.203Z,10.30
2017-10-22T09:03:34.734Z,10.30
2017-10-22T09:06:02.276Z,10.20
2017-10-22T09:08:29.809Z,10.20
2017-10-22T09:10:57.351Z,10.20
2017-10-22T09:13:24.876Z,10.20
2017-10-22T09:15:52.413Z,10.20
2017-10-22T09:18:20.695Z,10.20
2017-10-22T09:20:48.999Z,10.30
2017-10-22T09:23:16.523Z,10.20
2017-10-22T09:25:44.059Z,10.20
2017-10-22T09:28:11.586Z,10.30
2017-10-22T09:30:39.130Z,10.30
2017-10-22T09:33:06.650Z,10.20
2017-10-22T09:35:34.170Z,10.20
2017-10-22T09:38:02.478Z,10.20
2017-10-22T09:40:29.990Z,10.20
2017-10-22T09:42:57.524Z,10.20
2017-10-22T09:45:25.047Z,10.30
2017-10-22T09:47:53.354Z,10.30
2017-10-22T09:50:20.876Z,10.20
2017-10-22T09:52:48.424Z,10.30
2017-10-22T09:55:15.954Z,10.30
2017-10-22T09:57:43.492Z,10.30
2017-10-22T10:00:11.782Z,10.30
2017-10-22T10:02:40.094Z,10.30
2017-10-22T10:05:07.617Z,10.30
2017-10-22T10:07:35.922Z,10.40
2017-10-22T10:10:03.449Z,10.40
2017-10-22T10:12:31.011Z,10.40
2017-10-22T10:14:58.531Z,10.40
2017-10-22T10:17:26.055Z,10.50
2017-10-22T10:19:54.373Z,10.70
2017-10-22T10:22:21.894Z,10.70
2017-10-22T10:24:50.213Z,10.80
2017-10-22T10:27:17.732Z,10.80
2017-10-22T10:29:46.061Z,11.00
2017-10-22T10:32:13.589Z,11.00
2017-10-22T10:34:41.901Z,11.10
2017-10-22T10:37:09.427Z,11.00
2017-10-22T10:39:37.739Z,11.00
2017-10-22T10:42:05.254Z,11.00
2017-10-22T10:44:33.542Z,11.00
2017-10-22T10:47:01.831Z,11.00
2017-10-22T10:49:30.134Z,11.10
2017-10-22T10:51:57.715Z,11.10
2017-10-22T10:54:25.251Z,11.00
2017-10-22T10:56:53.550Z,11.10
2017-10-22T10:59:21.077Z,11.00
2017-10-22T11:01:48.618Z,11.10
2017-10-22T11:04:16.141Z,10.90
2017-10-22T11:06:43.691Z,10.90
2017-10-22T11:09:11.981Z,11.10
2017-10-22T11:11:39.527Z,11.10
2017-10-22T11:14:07.819Z,11.20
2017-10-22T11:16:35.361Z,11.20
2017-10-22T11:19:03.652Z,11.30
2017-10-22T11:21:31.982Z,11.30
2017-10-22T11:23:59.501Z,11.30
2017-10-22T11:26:27.020Z,11.40
2017-10-22T11:28:54.568Z,11.40
2017-10-22T11:31:22.107Z,11.30
2017-10-22T11:33:49.642Z,11.40
2017-10-22T11:36:17.155Z,11.20
2017-10-22T11:38:44.695Z,11.10
2017-10-22T11:41:12.211Z,11.10
2017-10-22T11:43:40.520Z,11.00
2017-10-22T11:46:08.038Z,11.00
2017-10-22T11:48:35.579Z,11.20
2017-10-22T11:51:03.095Z,11.30
2017-10-22T11:53:30.638Z,11.50
2017-10-22T11:55:58.932Z,11.80
2017-10-22T11:58:27.266Z,11.90
2017-10-22T12:00:54.791Z,11.90
2017-10-22T12:03:23.074Z,12.10
2017-10-22T12:05:51.384Z,12.30
2017-10-22T12:08:18.904Z,12.20
2017-10-22T12:10:47.213Z,12.10
2017-10-22T12:13:14.747Z,12.10
2017-10-22T12:15:43.056Z,12.00
2017-10-22T12:18:10.579Z,11.90
2017-10-22T12:20:38.120Z,11.80
2017-10-22T12:23:05.639Z,11.70
2017-10-22T12:25:33.180Z,11.50
2017-10-22T12:28:01.467Z,11.30
2017-10-22T12:30:29.771Z,11.30
2017-10-22T12:32:57.295Z,11.30
2017-10-22T12:35:25.616Z,11.30
2017-10-22T12:37:53.141Z,11.30
2017-10-22T12:40:21.426Z,11.20
2017-10-22T12:42:49.738Z,11.20
2017-10-22T12:45:17.255Z,11.10
2017-10-22T12:47:44.790Z,11.10
2017-10-22T12:50:12.307Z,11.00
2017-10-22T12:52:40.619Z,11.00
2017-10-22T12:55:08.134Z,11.00
2017-10-22T12:57:35.670Z,11.00
2017-10-22T13:00:03.191Z,11.00
2017-10-22T13:02:30.734Z,11.00
2017-10-22T13:04:59.015Z,11.10
2017-10-22T13:07:27.325Z,11.10
2017-10-22T13:09:54.848Z,11.00
2017-10-22T13:12:22.410Z,11.00
2017-10-22T13:14:49.935Z,11.10
2017-10-22T13:17:17.455Z,11.10
2017-10-22T13:19:45.759Z,11.00
2017-10-22T13:22:13.284Z,11.00
2017-10-22T13:24:40.823Z,10.90
2017-10-22T13:27:08.336Z,11.00
2017-10-22T13:29:36.642Z,11.20
2017-10-22T13:32:04.162Z,11.10
2017-10-22T13:34:31.713Z,11.20
2017-10-22T13:36:59.235Z,11.30
2017-10-22T13:39:26.800Z,11.20
2017-10-22T13:41:54.323Z,11.10
2017-10-22T13:44:22.607Z,11.10
2017-10-22T13:46:50.918Z,11.00
2017-10-22T13:49:18.448Z,11.00
2017-10-22T13:51:46.755Z,10.80
2017-10-22T13:54:14.287Z,10.80
2017-10-22T13:56:41.831Z,10.70
2017-10-22T13:59:09.351Z,10.60
2017-10-22T14:01:36.890Z,10.60
2017-10-22T14:04:05.175Z,10.50
2017-10-22T14:06:33.483Z,10.50
2017-10-22T14:09:01.002Z,10.50
2017-10-22T14:11:28.568Z,10.50
2017-10-22T14:13:56.096Z,10.50
2017-10-22T14:16:23.631Z,10.50
2017-10-22T14:18:51.930Z,10.40
2017-10-22T14:21:19.446Z,10.40
2017-10-22T14:23:46.978Z,10.40
2017-10-22T14:26:14.493Z,10.40
2017-10-22T14:28:42.031Z,10.30
2017-10-22T14:31:09.550Z,10.30
2017-10-22T14:33:37.091Z,10.20
2017-10-22T14:36:05.380Z,10.20
2017-10-22T14:38:33.692Z,10.20
2017-10-22T14:41:01.214Z,10.10
2017-10-22T14:43:29.538Z,10.10
2017-10-22T14:45:57.058Z,10.00
2017-10-22T14:48:25.344Z,9.90
2017-10-22T14:50:53.657Z,10.00
2017-10-22T14:53:21.170Z,9.90
2017-10-22T14:55:48.713Z,9.90
2017-10-22T14:58:16.235Z,9.90
2017-10-22T15:00:44.539Z,9.80
2017-10-22T15:03:12.063Z,9.80
2017-10-22T15:05:39.596Z,9.70
2017-10-22T15:08:07.128Z,9.70
2017-10-22T15:10:34.659Z,9.70
2017-10-22T15:13:02.939Z,9.70
2017-10-22T15:15:31.247Z,9.70
2017-10-22T15:17:58.753Z,9.60
2017-10-22T15:20:26.303Z,9.60
2017-10-22T15:22:53.814Z,9.50
2017-10-22T15:25:22.094Z,9.40
2017-10-22T15:27:50.399Z,9.40
2017-10-22T15:30:17.911Z,9.30
2017-10-22T15:32:45.454Z,9.20
2017-10-22T15:35:12.970Z,9.20
2017-10-22T15:37:41.275Z,9.00
2017-10-22T15:40:08.795Z,9.00
2017-10-22T15:42:36.334Z,9.00
2017-10-22T15:45:03.855Z,9.00
2017-10-22T15:47:32.153Z,9.00
2017-10-22T15:49:59.667Z,9.00
2017-10-22T15:52:27.215Z,9.00
2017-10-22T15:54:54.743Z,8.90
2017-10-22T15:57:22.307Z,8.90
2017-10-22T15:59:49.841Z,8.90
2017-10-22T16:02:18.137Z,8.80
2017-10-22T16:04:45.682Z,8.80
2017-10-22T16:07:13.969Z,8.70
2017-10-22T16:09:42.270Z,8.70
2017-10-22T16:12:09.787Z,8.60
2017-10-22T16:14:37.328Z,8.60
2017-10-22T16:17:04.848Z,8.60
2017-10-22T16:19:33.159Z,8.60
2017-10-22T16:22:00.685Z,8.60
2017-10-22T16:24:29.002Z,8.60
2017-10-22T16:26:56.528Z,8.60
2017-10-22T16:29:24.846Z,8.50
2017-10-22T16:31:52.375Z,8.50
2017-10-22T16:34:20.698Z,8.50
2017-10-22T16:36:48.214Z,8.40
2017-10-22T16:39:16.496Z,8.40
2017-10-22T16:41:44.862Z,8.40
2017-10-22T16:44:12.376Z,8.40
2017-10-22T16:46:39.919Z,8.40
2017-10-22T16:49:08.210Z,8.30
2017-10-22T16:51:35.743Z,8.30
2017-10-22T16:54:03.271Z,8.40
2017-10-22T16:56:30.828Z,8.30
2017-10-22T16:58:58.347Z,8.30
2017-10-22T17:01:26.650Z,8.30
2017-10-22T17:03:54.177Z,8.30
2017-10-22T17:06:21.720Z,8.30
2017-10-22T17:08:49.243Z,8.30
2017-10-22T17:11:16.786Z,8.30
2017-10-22T17:13:45.074Z,8.20
2017-10-22T17:16:13.379Z,8.20
2017-10-22T17:18:40.904Z,8.20
2017-10-22T17:21:09.242Z,8.20
2017-10-22T17:23:36.780Z,8.20
2017-10-22T17:26:04.308Z,8.20
2017-10-22T17:28:32.619Z,8.10
2017-10-22T17:31:00.142Z,8.10
2017-10-22T17:33:27.682Z,8.10
2017-10-22T17:35:55.198Z,8.10
2017-10-22T17:38:23.501Z,8.10
2017-10-22T17:40:51.034Z,8.10
2017-10-22T17:43:19.339Z,8.20
2017-10-22T17:45:46.863Z,8.10
2017-10-22T17:48:14.410Z,8.10
2017-10-22T17:50:41.932Z,8.20
2017-10-22T17:53:09.479Z,8.10
2017-10-22T17:55:37.764Z,8.10
2017-10-22T17:58:06.083Z,8.10
2017-10-22T18:00:33.609Z,8.10
2017-10-22T18:03:01.912Z,8.10
2017-10-22T18:05:29.474Z,8.10
2017-10-22T18:07:57.018Z,8.10
2017-10-22T18:10:24.546Z,8.10
2017-10-22T18:12:52.124Z,8.10
2017-10-22T18:15:20.406Z,8.10
2017-10-22T18:17:48.691Z,8.10
2017-10-22T18:20:18.167Z,8.10
2017-10-22T18:22:45.698Z,8.00
2017-10-22T18:25:13.235Z,8.10
2017-10-22T18:27:40.754Z,8.10
2017-10-22T18:30:08.291Z,8.10
2017-10-22T18:32:35.811Z,8.10
2017-10-22T18:35:03.359Z,8.20
2017-10-22T18:37:31.673Z,8.20
2017-10-22T18:39:59.215Z,8.10
2017-10-22T18:42:27.495Z,8.10
2017-10-22T18:44:55.799Z,8.20
2017-10-22T18:47:23.320Z,8.20
2017-10-22T18:49:51.622Z,8.10
2017-10-22T18:52:19.142Z,8.10
2017-10-22T18:54:46.717Z,8.10
2017-10-22T18:57:14.235Z,8.10
2017-10-22T18:59:41.751Z,8.20
2017-10-22T19:02:10.067Z,8.20
2017-10-22T19:04:37.586Z,8.20
2017-10-22T19:07:05.126Z,8.20
2017-10-22T19:09:32.643Z,8.20
2017-10-22T19:12:00.179Z,8.20
2017-10-22T19:14:28.459Z,8.20
2017-10-22T19:16:56.763Z,8.20
2017-10-22T19:19:24.286Z,8.10
2017-10-22T19:21:51.827Z,8.10
2017-10-22T19:24:19.359Z,8.20
2017-10-22T19:26:46.907Z,8.20
2017-10-22T19:29:14.422Z,8.10
2017-10-22T19:31:41.963Z,8.10
2017-10-22T19:34:09.479Z,8.10
2017-10-22T19:36:37.787Z,8.20
2017-10-22T19:39:05.311Z,8.20
2017-10-22T19:41:32.840Z,8.20
2017-10-22T19:44:00.375Z,8.20
2017-10-22T19:46:27.899Z,8.20
2017-10-22T19:48:55.442Z,8.20
2017-10-22T19:51:22.971Z,8.20
2017-10-22T19:53:50.515Z,8.20
2017-10-22T19:56:18.031Z,8.20
2017-10-22T19:58:45.576Z,8.20
2017-10-22T20:01:13.098Z,8.20
2017-10-22T20:03:40.646Z,8.10
2017-10-22T20:06:08.930Z,8.10
2017-10-22T20:08:37.263Z,8.10
2017-10-22T20:11:04.816Z,8.10
2017-10-22T20:13:32.329Z,8.20
2017-10-22T20:15:59.870Z,8.10
2017-10-22T20:18:27.391Z,8.10
2017-10-22T20:20:54.935Z,8.10
2017-10-22T20:23:23.225Z,8.20
2017-10-22T20:25:50.762Z,8.20
2017-10-22T20:28:19.048Z,8.20
2017-10-22T20:30:47.356Z,8.20
2017-10-22T20:33:14.875Z,8.20
2017-10-22T20:35:42.425Z,8.20
2017-10-22T20:38:09.952Z,8.20
2017-10-22T20:40:37.503Z,8.20
2017-10-22T20:43:05.019Z,8.20
2017-10-22T20:45:32.562Z,8.20
2017-10-22T20:48:00.086Z,8.10
2017-10-22T20:50:27.623Z,8.20
2017-10-22T20:52:55.904Z,8.20
2017-10-22T20:55:24.236Z,8.20
2017-10-22T20:57:51.767Z,8.20
2017-10-22T21:00:20.051Z,8.20
2017-10-22T21:02:47.591Z,8.20
2017-10-22T21:05:15.110Z,8.20
2017-10-22T21:07:42.651Z,8.20
2017-10-22T21:10:10.167Z,8.10
2017-10-22T21:12:37.702Z,8.10
2017-10-22T21:15:05.233Z,8.10
2017-10-22T21:17:32.785Z,8.00
2017-10-22T21:20:00.307Z,8.00
2017-10-22T21:22:27.847Z,8.10
2017-10-22T21:24:55.365Z,8.10
2017-10-22T21:27:23.694Z,8.00
2017-10-22T21:29:51.211Z,8.00
2017-10-22T21:32:18.731Z,8.00
2017-10-22T21:34:46.274Z,8.00
2017-10-22T21:37:13.789Z,8.00
2017-10-22T21:39:42.091Z,8.00
2017-10-22T21:42:09.611Z,8.00
2017-10-22T21:44:37.150Z,8.00
2017-10-22T21:47:04.675Z,8.00
2017-10-22T21:49:32.211Z,7.90
2017-10-22T21:51:59.735Z,7.90
2017-10-22T21:54:27.284Z,7.90
2017-10-22T21:56:54.812Z,7.90
2017-10-22T21:59:23.115Z,7.80
2017-10-22T22:01:50.646Z,7.80
2017-10-22T22:04:18.954Z,7.80
2017-10-22T22:06:46.483Z,7.70
2017-10-22T22:09:14.802Z,7.80
2017-10-22T22:11:42.325Z,7.70
2017-10-22T22:14:09.858Z,7.80
2017-10-22T22:16:37.411Z,7.70
2017-10-22T22:19:04.931Z,7.70
2017-10-22T22:21:32.465Z,7.70
2017-10-22T22:23:59.987Z,7.70
2017-10-22T22:26:27.519Z,7.70
2017-10-22T22:28:55.042Z,7.70
2017-10-22T22:31:22.590Z,7.70
2017-10-22T22:33:50.115Z,7.80
2017-10-22T22:36:17.650Z,7.80
2017-10-22T22:38:45.936Z,7.80
2017-10-22T22:41:14.258Z,7.80
2017-10-22T22:43:41.775Z,7.80
2017-10-22T22:46:10.078Z,7.80
2017-10-22T22:48:37.605Z,7.80
2017-10-22T22:51:05.168Z,7.80
2017-10-22T22:53:32.695Z,7.70
2017-10-22T22:56:00.224Z,7.70
2017-10-22T22:58:28.527Z,7.70
2017-10-22T23:00:56.048Z,7.70
2017-10-22T23:03:24.366Z,7.70
2017-10-22T23:05:51.891Z,7.70
2017-10-22T23:08:20.199Z,7.70
2017-10-22T23:10:47.713Z,7.70
2017-10-22T23:13:15.254Z,7.80
2017-10-22T23:15:42.781Z,7.80
2017-10-22T23:18:10.334Z,7.70
2017-10-22T23:20:38.620Z,7.80
2017-10-22T23:23:06.918Z,7.70
2017-10-22T23:25:34.438Z,7.70
2017-10-22T23:28:02.012Z,7.70
2017-10-22T23:30:30.302Z,7.60
2017-10-22T23:32:58.588Z,7.60
2017-10-22T23:35:26.890Z,7.50
2017-10-22T23:37:54.415Z,7.50
2017-10-22T23:40:21.958Z,7.40
2017-10-22T23:42:49.488Z,7.40
2017-10-22T23:45:17.030Z,7.40
2017-10-22T23:47:44.547Z,7.30
2017-10-22T23:50:12.092Z,7.30
2017-10-22T23:52:39.618Z,7.30
2017-10-22T23:55:07.168Z,7.30
2017-10-22T23:57:35.516Z,7.20
